sensor_id;sensor_type;location;lat;lon;timestamp;temperature;humidity
490;DHT22;231;48.120;11.576;2023-07-20T00:01:21;21.90;3.10
490;DHT22;231;48.120;11.576;2023-07-20T00:03:48;21.90;3.10
490;DHT22;231;48.120;11.576;2023-07-20T00:06:20;22.00;3.20
490;DHT22;231;48.120;11.576;2023-07-20T00:08:47;21.90;3.10
490;DHT22;231;48.120;11.576;2023-07-20T00:11:19;21.80;3.40
490;DHT22;231;48.120;11.576;2023-07-20T00:13:50;21.70;3.50
490;DHT22;231;48.120;11.576;2023-07-20T00:16:17;21.60;3.70
490;DHT22;231;48.120;11.576;2023-07-20T00:18:44;21.50;4.00
490;DHT22;231;48.120;11.576;2023-07-20T00:21:11;21.50;4.50
490;DHT22;231;48.120;11.576;2023-07-20T00:23:57;21.40;4.40
490;DHT22;231;48.120;11.576;2023-07-20T00:26:31;21.30;4.40
490;DHT22;231;48.120;11.576;2023-07-20T00:29:01;21.20;4.30
490;DHT22;231;48.120;11.576;2023-07-20T00:31:29;21.20;4.30
490;DHT22;231;48.120;11.576;2023-07-20T00:33:56;21.10;4.80
490;DHT22;231;48.120;11.576;2023-07-20T00:36:23;21.10;5.10
490;DHT22;231;48.120;11.576;2023-07-20T00:38:50;21.00;5.20
490;DHT22;231;48.120;11.576;2023-07-20T00:41:17;21.00;5.30
490;DHT22;231;48.120;11.576;2023-07-20T00:43:45;21.00;5.30
490;DHT22;231;48.120;11.576;2023-07-20T00:46:12;21.00;5.50
490;DHT22;231;48.120;11.576;2023-07-20T00:48:40;21.20;5.50
490;DHT22;231;48.120;11.576;2023-07-20T00:51:10;21.20;5.30
490;DHT22;231;48.120;11.576;2023-07-20T00:53:38;21.20;5.40
490;DHT22;231;48.120;11.576;2023-07-20T00:56:05;21.30;5.40
490;DHT22;231;48.120;11.576;2023-07-20T00:58:33;21.40;5.30
490;DHT22;231;48.120;11.576;2023-07-20T01:01:02;21.50;5.20
490;DHT22;231;48.120;11.576;2023-07-20T01:03:29;21.50;4.90
490;DHT22;231;48.120;11.576;2023-07-20T01:06:04;21.60;4.80
490;DHT22;231;48.120;11.576;2023-07-20T01:09:02;21.70;4.60
490;DHT22;231;48.120;11.576;2023-07-20T01:11:46;21.70;4.60
490;DHT22;231;48.120;11.576;2023-07-20T01:14:18;21.70;4.60
490;DHT22;231;48.120;11.576;2023-07-20T01:16:47;21.70;4.60
490;DHT22;231;48.120;11.576;2023-07-20T01:19:18;21.70;4.60
490;DHT22;231;48.120;11.576;2023-07-20T01:21:51;21.70;4.60
490;DHT22;231;48.120;11.576;2023-07-20T01:24:41;21.60;4.90
490;DHT22;231;48.120;11.576;2023-07-20T01:30:37;21.60;5.00
490;DHT22;231;48.120;11.576;2023-07-20T01:33:09;21.50;5.20
490;DHT22;231;48.120;11.576;2023-07-20T01:35:38;21.50;5.20
490;DHT22;231;48.120;11.576;2023-07-20T01:38:09;21.50;5.30
490;DHT22;231;48.120;11.576;2023-07-20T01:40:37;21.50;5.40
490;DHT22;231;48.120;11.576;2023-07-20T01:43:05;21.50;5.40
490;DHT22;231;48.120;11.576;2023-07-20T01:45:34;21.50;5.50
490;DHT22;231;48.120;11.576;2023-07-20T01:48:11;21.50;5.40
490;DHT22;231;48.120;11.576;2023-07-20T01:50:38;21.50;5.00
490;DHT22;231;48.120;11.576;2023-07-20T01:53:05;21.50;5.20
490;DHT22;231;48.120;11.576;2023-07-20T01:55:32;21.50;5.00
490;DHT22;231;48.120;11.576;2023-07-20T01:57:59;21.50;5.00
490;DHT22;231;48.120;11.576;2023-07-20T02:00:27;21.50;4.90
490;DHT22;231;48.120;11.576;2023-07-20T02:02:54;21.50;5.10
490;DHT22;231;48.120;11.576;2023-07-20T02:05:22;21.50;5.10
490;DHT22;231;48.120;11.576;2023-07-20T02:07:50;21.50;4.90
490;DHT22;231;48.120;11.576;2023-07-20T02:10:16;21.50;5.50
490;DHT22;231;48.120;11.576;2023-07-20T02:12:43;21.50;4.90
490;DHT22;231;48.120;11.576;2023-07-20T02:15:10;21.50;4.80
490;DHT22;231;48.120;11.576;2023-07-20T02:17:38;21.50;4.60
490;DHT22;231;48.120;11.576;2023-07-20T02:20:07;21.50;4.50
490;DHT22;231;48.120;11.576;2023-07-20T02:22:37;21.50;4.50
490;DHT22;231;48.120;11.576;2023-07-20T02:25:04;21.50;4.70
490;DHT22;231;48.120;11.576;2023-07-20T02:27:31;21.50;4.50
490;DHT22;231;48.120;11.576;2023-07-20T02:29:58;21.50;4.50
490;DHT22;231;48.120;11.576;2023-07-20T02:32:25;21.50;4.50
490;DHT22;231;48.120;11.576;2023-07-20T02:34:52;21.50;4.50
490;DHT22;231;48.120;11.576;2023-07-20T02:37:19;21.50;5.00
490;DHT22;231;48.120;11.576;2023-07-20T02:39:47;21.40;5.20
490;DHT22;231;48.120;11.576;2023-07-20T02:42:14;21.40;5.00
490;DHT22;231;48.120;11.576;2023-07-20T02:44:41;21.30;5.00
490;DHT22;231;48.120;11.576;2023-07-20T02:47:09;21.30;4.90
490;DHT22;231;48.120;11.576;2023-07-20T02:49:35;21.20;4.60
490;DHT22;231;48.120;11.576;2023-07-20T02:52:03;21.20;4.30
490;DHT22;231;48.120;11.576;2023-07-20T02:54:30;21.20;4.30
490;DHT22;231;48.120;11.576;2023-07-20T02:56:59;21.20;4.40
490;DHT22;231;48.120;11.576;2023-07-20T02:59:27;21.20;6.10
490;DHT22;231;48.120;11.576;2023-07-20T03:01:54;21.20;14.00
490;DHT22;231;48.120;11.576;2023-07-20T03:04:23;20.90;19.10
490;DHT22;231;48.120;11.576;2023-07-20T03:06:50;20.40;21.90
490;DHT22;231;48.120;11.576;2023-07-20T03:09:17;19.90;24.00
490;DHT22;231;48.120;11.576;2023-07-20T03:11:44;19.50;26.70
490;DHT22;231;48.120;11.576;2023-07-20T03:14:12;19.10;31.10
490;DHT22;231;48.120;11.576;2023-07-20T03:16:39;18.80;33.40
490;DHT22;231;48.120;11.576;2023-07-20T03:19:06;18.50;36.80
490;DHT22;231;48.120;11.576;2023-07-20T03:21:32;18.30;39.30
490;DHT22;231;48.120;11.576;2023-07-20T03:23:59;18.20;41.00
490;DHT22;231;48.120;11.576;2023-07-20T03:26:26;18.10;43.70
490;DHT22;231;48.120;11.576;2023-07-20T03:28:53;18.00;45.90
490;DHT22;231;48.120;11.576;2023-07-20T03:31:22;17.90;46.70
490;DHT22;231;48.120;11.576;2023-07-20T03:33:49;17.90;46.70
490;DHT22;231;48.120;11.576;2023-07-20T03:36:16;17.90;49.40
490;DHT22;231;48.120;11.576;2023-07-20T03:38:42;17.80;51.30
490;DHT22;231;48.120;11.576;2023-07-20T03:41:09;17.70;52.80
490;DHT22;231;48.120;11.576;2023-07-20T03:43:37;17.60;55.00
490;DHT22;231;48.120;11.576;2023-07-20T03:46:04;17.50;56.90
490;DHT22;231;48.120;11.576;2023-07-20T03:48:34;17.50;57.70
490;DHT22;231;48.120;11.576;2023-07-20T03:51:01;17.40;58.50
490;DHT22;231;48.120;11.576;2023-07-20T03:53:29;17.40;59.40
490;DHT22;231;48.120;11.576;2023-07-20T03:55:56;17.40;59.40
490;DHT22;231;48.120;11.576;2023-07-20T03:58:24;17.40;58.60
490;DHT22;231;48.120;11.576;2023-07-20T04:10:55;17.50;51.30
490;DHT22;231;48.120;11.576;2023-07-20T04:13:40;17.50;52.60
490;DHT22;231;48.120;11.576;2023-07-20T04:16:58;17.50;51.80
490;DHT22;231;48.120;11.576;2023-07-20T04:47:08;18.20;41.40
490;DHT22;231;48.120;11.576;2023-07-20T04:49:35;18.20;38.90
490;DHT22;231;48.120;11.576;2023-07-20T04:52:02;18.30;37.80
490;DHT22;231;48.120;11.576;2023-07-20T04:54:29;18.40;34.10
490;DHT22;231;48.120;11.576;2023-07-20T04:56:56;18.40;33.10
490;DHT22;231;48.120;11.576;2023-07-20T04:59:23;18.50;31.70
490;DHT22;231;48.120;11.576;2023-07-20T05:01:50;18.60;29.90
490;DHT22;231;48.120;11.576;2023-07-20T05:04:19;18.70;27.70
490;DHT22;231;48.120;11.576;2023-07-20T05:06:46;18.90;25.80
490;DHT22;231;48.120;11.576;2023-07-20T05:09:13;19.00;24.30
490;DHT22;231;48.120;11.576;2023-07-20T05:11:40;19.10;23.90
490;DHT22;231;48.120;11.576;2023-07-20T05:14:07;19.10;22.70
490;DHT22;231;48.120;11.576;2023-07-20T05:16:34;19.20;22.00
490;DHT22;231;48.120;11.576;2023-07-20T05:19:01;19.20;20.80
490;DHT22;231;48.120;11.576;2023-07-20T05:21:30;19.30;19.40
490;DHT22;231;48.120;11.576;2023-07-20T05:23:57;19.40;19.60
490;DHT22;231;48.120;11.576;2023-07-20T05:26:36;19.50;17.90
490;DHT22;231;48.120;11.576;2023-07-20T05:29:03;19.60;18.10
490;DHT22;231;48.120;11.576;2023-07-20T05:31:30;19.70;17.70
490;DHT22;231;48.120;11.576;2023-07-20T05:33:57;19.80;16.70
490;DHT22;231;48.120;11.576;2023-07-20T05:36:25;19.90;15.80
490;DHT22;231;48.120;11.576;2023-07-20T05:38:54;20.00;16.00
490;DHT22;231;48.120;11.576;2023-07-20T05:41:21;20.10;14.50
490;DHT22;231;48.120;11.576;2023-07-20T05:43:48;20.30;12.90
490;DHT22;231;48.120;11.576;2023-07-20T05:46:15;20.40;12.50
490;DHT22;231;48.120;11.576;2023-07-20T05:48:43;20.50;11.60
490;DHT22;231;48.120;11.576;2023-07-20T05:51:10;20.70;11.00
490;DHT22;231;48.120;11.576;2023-07-20T05:53:37;20.80;9.30
490;DHT22;231;48.120;11.576;2023-07-20T05:56:07;20.80;9.40
490;DHT22;231;48.120;11.576;2023-07-20T05:58:35;21.00;9.10
490;DHT22;231;48.120;11.576;2023-07-20T06:01:04;21.10;8.90
490;DHT22;231;48.120;11.576;2023-07-20T06:03:31;21.10;7.10
490;DHT22;231;48.120;11.576;2023-07-20T06:05:59;21.20;7.20
490;DHT22;231;48.120;11.576;2023-07-20T06:08:27;21.30;6.60
490;DHT22;231;48.120;11.576;2023-07-20T06:10:54;21.30;7.00
490;DHT22;231;48.120;11.576;2023-07-20T06:13:23;21.40;6.00
490;DHT22;231;48.120;11.576;2023-07-20T06:15:50;21.70;4.60
490;DHT22;231;48.120;11.576;2023-07-20T06:18:18;22.00;3.70
490;DHT22;231;48.120;11.576;2023-07-20T06:20:49;22.30;2.90
490;DHT22;231;48.120;11.576;2023-07-20T06:23:16;22.60;1.60
490;DHT22;231;48.120;11.576;2023-07-20T06:25:44;23.00;1.00
490;DHT22;231;48.120;11.576;2023-07-20T06:28:11;23.20;1.00
490;DHT22;231;48.120;11.576;2023-07-20T06:30:41;23.60;1.00
490;DHT22;231;48.120;11.576;2023-07-20T06:33:08;23.90;1.00
490;DHT22;231;48.120;11.576;2023-07-20T06:35:35;24.30;1.00
490;DHT22;231;48.120;11.576;2023-07-20T06:38:05;24.40;1.00
490;DHT22;231;48.120;11.576;2023-07-20T06:58:11;24.90;1.00
490;DHT22;231;48.120;11.576;2023-07-20T07:00:39;25.30;1.00
490;DHT22;231;48.120;11.576;2023-07-20T07:03:08;26.40;1.00
490;DHT22;231;48.120;11.576;2023-07-20T07:05:38;28.20;1.00
490;DHT22;231;48.120;11.576;2023-07-20T07:08:05;28.80;1.00
490;DHT22;231;48.120;11.576;2023-07-20T07:10:32;28.90;1.00
490;DHT22;231;48.120;11.576;2023-07-20T07:13:03;29.00;1.00
490;DHT22;231;48.120;11.576;2023-07-20T07:15:30;29.70;1.00
490;DHT22;231;48.120;11.576;2023-07-20T07:18:01;30.40;1.00
490;DHT22;231;48.120;11.576;2023-07-20T07:20:29;31.40;1.00
490;DHT22;231;48.120;11.576;2023-07-20T07:22:56;33.80;1.00
490;DHT22;231;48.120;11.576;2023-07-20T07:25:25;34.90;1.00
490;DHT22;231;48.120;11.576;2023-07-20T07:28:05;35.50;1.00
490;DHT22;231;48.120;11.576;2023-07-20T07:31:13;37.60;1.00
490;DHT22;231;48.120;11.576;2023-07-20T07:33:57;39.90;1.00
490;DHT22;231;48.120;11.576;2023-07-20T07:36:35;40.20;1.00
490;DHT22;231;48.120;11.576;2023-07-20T07:39:21;39.60;1.00
490;DHT22;231;48.120;11.576;2023-07-20T07:42:06;38.60;1.00
490;DHT22;231;48.120;11.576;2023-07-20T07:45:00;37.10;1.00
490;DHT22;231;48.120;11.576;2023-07-20T07:47:46;35.90;1.00
490;DHT22;231;48.120;11.576;2023-07-20T07:50:32;35.20;1.00
490;DHT22;231;48.120;11.576;2023-07-20T07:53:19;34.50;1.00
490;DHT22;231;48.120;11.576;2023-07-20T07:55:47;33.80;1.00
490;DHT22;231;48.120;11.576;2023-07-20T07:58:15;33.40;1.00
490;DHT22;231;48.120;11.576;2023-07-20T08:03:22;33.10;1.00
490;DHT22;231;48.120;11.576;2023-07-20T08:05:55;33.00;1.00
490;DHT22;231;48.120;11.576;2023-07-20T08:30:50;33.90;1.00
490;DHT22;231;48.120;11.576;2023-07-20T08:36:08;33.90;1.00
490;DHT22;231;48.120;11.576;2023-07-20T08:48:50;38.10;1.00
490;DHT22;231;48.120;11.576;2023-07-20T08:51:21;38.60;1.00
490;DHT22;231;48.120;11.576;2023-07-20T08:53:51;38.40;1.00
490;DHT22;231;48.120;11.576;2023-07-20T08:56:42;38.10;1.00
490;DHT22;231;48.120;11.576;2023-07-20T08:59:13;37.80;1.00
490;DHT22;231;48.120;11.576;2023-07-20T09:01:44;37.70;1.00
490;DHT22;231;48.120;11.576;2023-07-20T09:04:12;37.40;1.00
490;DHT22;231;48.120;11.576;2023-07-20T09:06:40;37.20;1.00
490;DHT22;231;48.120;11.576;2023-07-20T09:09:07;37.20;1.00
490;DHT22;231;48.120;11.576;2023-07-20T09:11:47;37.30;1.00
490;DHT22;231;48.120;11.576;2023-07-20T09:17:55;39.00;1.00
490;DHT22;231;48.120;11.576;2023-07-20T12:10:16;41.70;1.00
490;DHT22;231;48.120;11.576;2023-07-20T12:12:44;41.10;1.00
490;DHT22;231;48.120;11.576;2023-07-20T12:15:15;40.50;1.00
490;DHT22;231;48.120;11.576;2023-07-20T12:17:42;39.60;1.00
490;DHT22;231;48.120;11.576;2023-07-20T12:20:11;39.20;1.00
490;DHT22;231;48.120;11.576;2023-07-20T12:22:39;40.20;1.00
490;DHT22;231;48.120;11.576;2023-07-20T12:25:06;41.00;1.00
490;DHT22;231;48.120;11.576;2023-07-20T12:27:36;41.90;1.00
490;DHT22;231;48.120;11.576;2023-07-20T12:30:04;41.80;1.00
490;DHT22;231;48.120;11.576;2023-07-20T12:32:32;41.10;1.00
490;DHT22;231;48.120;11.576;2023-07-20T12:34:59;40.20;1.00
490;DHT22;231;48.120;11.576;2023-07-20T12:37:26;39.80;1.00
490;DHT22;231;48.120;11.576;2023-07-20T12:39:53;40.50;1.00
490;DHT22;231;48.120;11.576;2023-07-20T12:42:21;41.50;1.00
490;DHT22;231;48.120;11.576;2023-07-20T12:44:50;41.90;1.00
490;DHT22;231;48.120;11.576;2023-07-20T12:47:17;41.60;1.00
490;DHT22;231;48.120;11.576;2023-07-20T12:49:44;41.10;1.00
490;DHT22;231;48.120;11.576;2023-07-20T12:52:13;40.60;1.00
490;DHT22;231;48.120;11.576;2023-07-20T12:54:40;39.90;1.00
490;DHT22;231;48.120;11.576;2023-07-20T12:57:07;38.80;1.00
490;DHT22;231;48.120;11.576;2023-07-20T12:59:33;37.70;1.00
490;DHT22;231;48.120;11.576;2023-07-20T13:02:02;36.90;1.00
490;DHT22;231;48.120;11.576;2023-07-20T13:04:30;36.30;1.00
490;DHT22;231;48.120;11.576;2023-07-20T13:06:56;35.90;1.00
490;DHT22;231;48.120;11.576;2023-07-20T13:09:24;35.50;1.00
490;DHT22;231;48.120;11.576;2023-07-20T13:11:51;35.20;1.00
490;DHT22;231;48.120;11.576;2023-07-20T13:14:18;34.70;1.00
490;DHT22;231;48.120;11.576;2023-07-20T13:16:44;34.20;1.00
490;DHT22;231;48.120;11.576;2023-07-20T13:19:13;33.70;1.00
490;DHT22;231;48.120;11.576;2023-07-20T13:21:40;33.30;1.00
490;DHT22;231;48.120;11.576;2023-07-20T13:24:07;33.00;1.00
490;DHT22;231;48.120;11.576;2023-07-20T13:26:34;32.70;1.00
490;DHT22;231;48.120;11.576;2023-07-20T13:29:01;32.50;1.00
490;DHT22;231;48.120;11.576;2023-07-20T13:31:28;32.10;1.00
490;DHT22;231;48.120;11.576;2023-07-20T13:33:55;31.90;1.00
490;DHT22;231;48.120;11.576;2023-07-20T13:36:23;31.70;1.00
490;DHT22;231;48.120;11.576;2023-07-20T13:38:50;31.60;1.00
490;DHT22;231;48.120;11.576;2023-07-20T13:41:18;31.80;1.00
490;DHT22;231;48.120;11.576;2023-07-20T13:43:45;32.10;1.00
490;DHT22;231;48.120;11.576;2023-07-20T13:46:12;32.20;1.00
490;DHT22;231;48.120;11.576;2023-07-20T13:48:39;32.20;1.00
490;DHT22;231;48.120;11.576;2023-07-20T13:51:06;32.00;1.00
490;DHT22;231;48.120;11.576;2023-07-20T13:53:34;31.80;1.00
490;DHT22;231;48.120;11.576;2023-07-20T13:56:01;31.60;1.00
490;DHT22;231;48.120;11.576;2023-07-20T13:58:30;31.40;1.00
490;DHT22;231;48.120;11.576;2023-07-20T14:03:27;31.20;1.00
490;DHT22;231;48.120;11.576;2023-07-20T14:05:55;31.10;1.00
490;DHT22;231;48.120;11.576;2023-07-20T14:08:46;31.00;1.00
490;DHT22;231;48.120;11.576;2023-07-20T14:11:16;31.10;1.00
490;DHT22;231;48.120;11.576;2023-07-20T14:13:47;31.10;1.00
490;DHT22;231;48.120;11.576;2023-07-20T14:16:33;31.20;1.00
490;DHT22;231;48.120;11.576;2023-07-20T14:19:01;31.30;1.00
490;DHT22;231;48.120;11.576;2023-07-20T14:21:30;31.20;1.00
490;DHT22;231;48.120;11.576;2023-07-20T14:24:00;31.10;1.00
490;DHT22;231;48.120;11.576;2023-07-20T14:26:27;30.90;1.00
490;DHT22;231;48.120;11.576;2023-07-20T14:28:56;30.70;1.00
490;DHT22;231;48.120;11.576;2023-07-20T14:31:27;30.70;1.00
490;DHT22;231;48.120;11.576;2023-07-20T14:33:57;30.70;1.00
490;DHT22;231;48.120;11.576;2023-07-20T14:36:25;30.60;1.00
490;DHT22;231;48.120;11.576;2023-07-20T14:38:52;30.40;1.00
490;DHT22;231;48.120;11.576;2023-07-20T14:41:20;30.20;1.00
490;DHT22;231;48.120;11.576;2023-07-20T14:43:47;30.00;1.00
490;DHT22;231;48.120;11.576;2023-07-20T14:46:14;29.90;1.00
490;DHT22;231;48.120;11.576;2023-07-20T14:48:41;29.80;1.00
490;DHT22;231;48.120;11.576;2023-07-20T14:51:07;29.50;1.00
490;DHT22;231;48.120;11.576;2023-07-20T14:53:34;29.30;1.00
490;DHT22;231;48.120;11.576;2023-07-20T14:56:01;29.10;1.00
490;DHT22;231;48.120;11.576;2023-07-20T14:58:32;29.00;1.00
490;DHT22;231;48.120;11.576;2023-07-20T15:00:59;28.80;1.00
490;DHT22;231;48.120;11.576;2023-07-20T15:03:26;28.50;1.00
490;DHT22;231;48.120;11.576;2023-07-20T15:05:53;28.30;1.00
490;DHT22;231;48.120;11.576;2023-07-20T15:08:21;28.10;1.00
490;DHT22;231;48.120;11.576;2023-07-20T15:10:48;27.90;1.00
490;DHT22;231;48.120;11.576;2023-07-20T15:13:15;27.80;1.00
490;DHT22;231;48.120;11.576;2023-07-20T15:15:43;28.00;1.00
490;DHT22;231;48.120;11.576;2023-07-20T15:18:10;28.20;1.00
490;DHT22;231;48.120;11.576;2023-07-20T15:20:37;28.20;1.00
490;DHT22;231;48.120;11.576;2023-07-20T15:23:04;28.20;1.00
490;DHT22;231;48.120;11.576;2023-07-20T15:25:31;28.20;1.00
490;DHT22;231;48.120;11.576;2023-07-20T15:27:57;28.30;1.00
490;DHT22;231;48.120;11.576;2023-07-20T15:30:24;28.40;1.00
490;DHT22;231;48.120;11.576;2023-07-20T15:32:53;28.50;1.00
490;DHT22;231;48.120;11.576;2023-07-20T15:35:21;28.60;1.00
490;DHT22;231;48.120;11.576;2023-07-20T15:37:48;28.60;1.00
490;DHT22;231;48.120;11.576;2023-07-20T15:40:27;28.60;1.00
490;DHT22;231;48.120;11.576;2023-07-20T15:42:54;28.60;1.00
490;DHT22;231;48.120;11.576;2023-07-20T15:45:21;28.60;1.00
490;DHT22;231;48.120;11.576;2023-07-20T15:47:49;28.70;1.00
490;DHT22;231;48.120;11.576;2023-07-20T15:50:17;28.60;1.00
490;DHT22;231;48.120;11.576;2023-07-20T15:52:44;28.40;1.00
490;DHT22;231;48.120;11.576;2023-07-20T15:55:11;28.20;1.00
490;DHT22;231;48.120;11.576;2023-07-20T15:57:38;27.90;1.00
490;DHT22;231;48.120;11.576;2023-07-20T16:00:06;27.60;1.00
490;DHT22;231;48.120;11.576;2023-07-20T16:02:36;27.40;1.00
490;DHT22;231;48.120;11.576;2023-07-20T16:05:03;27.30;1.00
490;DHT22;231;48.120;11.576;2023-07-20T16:07:31;27.40;1.00
490;DHT22;231;48.120;11.576;2023-07-20T16:09:59;27.50;1.00
490;DHT22;231;48.120;11.576;2023-07-20T16:12:26;27.60;1.00
490;DHT22;231;48.120;11.576;2023-07-20T16:14:56;27.60;1.00
490;DHT22;231;48.120;11.576;2023-07-20T16:17:23;27.80;1.00
490;DHT22;231;48.120;11.576;2023-07-20T16:19:50;27.80;1.00
490;DHT22;231;48.120;11.576;2023-07-20T16:22:17;27.90;1.00
490;DHT22;231;48.120;11.576;2023-07-20T16:24:45;27.80;1.00
490;DHT22;231;48.120;11.576;2023-07-20T16:27:12;27.80;1.00
490;DHT22;231;48.120;11.576;2023-07-20T16:29:39;27.60;1.00
490;DHT22;231;48.120;11.576;2023-07-20T16:32:06;27.50;1.00
490;DHT22;231;48.120;11.576;2023-07-20T16:34:35;27.30;1.00
490;DHT22;231;48.120;11.576;2023-07-20T16:37:02;27.20;1.00
490;DHT22;231;48.120;11.576;2023-07-20T16:39:29;27.00;1.00
490;DHT22;231;48.120;11.576;2023-07-20T16:41:57;26.90;1.00
490;DHT22;231;48.120;11.576;2023-07-20T16:44:24;26.80;1.00
490;DHT22;231;48.120;11.576;2023-07-20T16:46:51;26.90;1.00
490;DHT22;231;48.120;11.576;2023-07-20T16:49:18;27.00;1.00
490;DHT22;231;48.120;11.576;2023-07-20T16:51:45;27.10;1.00
490;DHT22;231;48.120;11.576;2023-07-20T16:54:11;27.10;1.00
490;DHT22;231;48.120;11.576;2023-07-20T16:56:38;27.10;1.00
490;DHT22;231;48.120;11.576;2023-07-20T16:59:08;27.10;1.00
490;DHT22;231;48.120;11.576;2023-07-20T17:01:35;27.00;1.00
490;DHT22;231;48.120;11.576;2023-07-20T17:04:02;27.10;1.00
490;DHT22;231;48.120;11.576;2023-07-20T17:06:28;27.30;1.00
490;DHT22;231;48.120;11.576;2023-07-20T17:08:55;27.40;1.00
490;DHT22;231;48.120;11.576;2023-07-20T17:11:25;27.60;1.00
490;DHT22;231;48.120;11.576;2023-07-20T17:13:52;27.70;1.00
490;DHT22;231;48.120;11.576;2023-07-20T17:16:21;27.80;1.00
490;DHT22;231;48.120;11.576;2023-07-20T17:18:47;27.80;1.00
490;DHT22;231;48.120;11.576;2023-07-20T17:21:14;27.70;1.00
490;DHT22;231;48.120;11.576;2023-07-20T17:23:42;27.60;1.00
490;DHT22;231;48.120;11.576;2023-07-20T17:26:09;27.50;1.00
490;DHT22;231;48.120;11.576;2023-07-20T17:28:36;27.40;1.00
490;DHT22;231;48.120;11.576;2023-07-20T17:31:03;27.40;1.00
490;DHT22;231;48.120;11.576;2023-07-20T17:33:32;27.30;1.00
490;DHT22;231;48.120;11.576;2023-07-20T17:35:59;27.20;1.00
490;DHT22;231;48.120;11.576;2023-07-20T17:38:26;27.10;1.00
490;DHT22;231;48.120;11.576;2023-07-20T17:40:52;26.90;1.00
490;DHT22;231;48.120;11.576;2023-07-20T17:43:19;26.70;1.00
490;DHT22;231;48.120;11.576;2023-07-20T17:45:48;26.60;1.00
490;DHT22;231;48.120;11.576;2023-07-20T17:48:16;26.40;1.00
490;DHT22;231;48.120;11.576;2023-07-20T17:50:45;26.20;1.00
490;DHT22;231;48.120;11.576;2023-07-20T17:53:12;26.10;1.00
490;DHT22;231;48.120;11.576;2023-07-20T17:55:40;25.90;1.00
490;DHT22;231;48.120;11.576;2023-07-20T17:58:07;25.70;1.00
490;DHT22;231;48.120;11.576;2023-07-20T18:00:35;25.60;1.00
490;DHT22;231;48.120;11.576;2023-07-20T18:03:02;25.40;1.00
490;DHT22;231;48.120;11.576;2023-07-20T18:05:28;25.30;1.00
490;DHT22;231;48.120;11.576;2023-07-20T18:07:58;25.20;1.00
490;DHT22;231;48.120;11.576;2023-07-20T18:10:25;25.20;1.00
490;DHT22;231;48.120;11.576;2023-07-20T18:12:52;25.20;1.00
490;DHT22;231;48.120;11.576;2023-07-20T18:15:19;25.20;1.00
490;DHT22;231;48.120;11.576;2023-07-20T18:17:46;25.30;1.00
490;DHT22;231;48.120;11.576;2023-07-20T18:20:20;25.30;1.00
490;DHT22;231;48.120;11.576;2023-07-20T18:39:57;24.20;1.00
490;DHT22;231;48.120;11.576;2023-07-20T18:42:34;24.00;1.00
490;DHT22;231;48.120;11.576;2023-07-20T18:45:11;23.80;1.00
490;DHT22;231;48.120;11.576;2023-07-20T18:47:50;23.70;1.00
490;DHT22;231;48.120;11.576;2023-07-20T18:50:22;23.40;1.00
490;DHT22;231;48.120;11.576;2023-07-20T18:56:08;23.00;1.00
490;DHT22;231;48.120;11.576;2023-07-20T18:58:41;22.80;1.00
490;DHT22;231;48.120;11.576;2023-07-20T19:01:15;22.60;1.00
490;DHT22;231;48.120;11.576;2023-07-20T19:03:42;22.50;1.00
490;DHT22;231;48.120;11.576;2023-07-20T19:06:14;22.40;1.00
490;DHT22;231;48.120;11.576;2023-07-20T19:08:51;22.30;1.00
490;DHT22;231;48.120;11.576;2023-07-20T19:11:26;22.30;1.00
490;DHT22;231;48.120;11.576;2023-07-20T19:14:14;22.30;1.00
490;DHT22;231;48.120;11.576;2023-07-20T19:16:51;22.30;1.00
490;DHT22;231;48.120;11.576;2023-07-20T19:22:16;22.40;1.00
490;DHT22;231;48.120;11.576;2023-07-20T19:27:58;22.40;1.00
490;DHT22;231;48.120;11.576;2023-07-20T19:30:26;22.40;1.00
490;DHT22;231;48.120;11.576;2023-07-20T19:33:01;22.40;1.00
490;DHT22;231;48.120;11.576;2023-07-20T19:35:33;22.30;1.00
490;DHT22;231;48.120;11.576;2023-07-20T19:38:09;22.30;1.00
490;DHT22;231;48.120;11.576;2023-07-20T19:40:42;22.30;1.00
490;DHT22;231;48.120;11.576;2023-07-20T19:43:27;22.20;1.00
490;DHT22;231;48.120;11.576;2023-07-20T19:45:56;22.10;1.00
490;DHT22;231;48.120;11.576;2023-07-20T19:48:26;22.00;1.00
490;DHT22;231;48.120;11.576;2023-07-20T19:50:55;21.90;1.00
490;DHT22;231;48.120;11.576;2023-07-20T19:53:35;21.90;1.00
490;DHT22;231;48.120;11.576;2023-07-20T19:56:02;21.80;1.00
490;DHT22;231;48.120;11.576;2023-07-20T19:58:35;21.70;1.00
490;DHT22;231;48.120;11.576;2023-07-20T20:01:08;21.70;1.00
490;DHT22;231;48.120;11.576;2023-07-20T22:00:03;18.70;15.90
490;DHT22;231;48.120;11.576;2023-07-20T22:02:30;18.60;16.30
490;DHT22;231;48.120;11.576;2023-07-20T22:04:57;18.60;16.20
490;DHT22;231;48.120;11.576;2023-07-20T22:07:24;18.50;16.60
490;DHT22;231;48.120;11.576;2023-07-20T22:09:51;18.50;16.90
490;DHT22;231;48.120;11.576;2023-07-20T22:12:18;18.50;17.50
490;DHT22;231;48.120;11.576;2023-07-20T22:14:45;18.40;17.90
490;DHT22;231;48.120;11.576;2023-07-20T22:17:13;18.40;18.40
490;DHT22;231;48.120;11.576;2023-07-20T22:19:40;18.40;18.70
490;DHT22;231;48.120;11.576;2023-07-20T22:22:07;18.30;18.80
490;DHT22;231;48.120;11.576;2023-07-20T22:24:35;18.30;19.50
490;DHT22;231;48.120;11.576;2023-07-20T22:27:03;18.30;19.90
490;DHT22;231;48.120;11.576;2023-07-20T22:29:30;18.20;19.20
490;DHT22;231;48.120;11.576;2023-07-20T22:31:59;18.20;20.60
490;DHT22;231;48.120;11.576;2023-07-20T22:34:28;18.20;20.90
490;DHT22;231;48.120;11.576;2023-07-20T22:36:56;18.20;21.30
490;DHT22;231;48.120;11.576;2023-07-20T22:39:27;18.10;21.70
490;DHT22;231;48.120;11.576;2023-07-20T22:42:00;18.10;22.10
490;DHT22;231;48.120;11.576;2023-07-20T22:44:27;18.00;22.40
490;DHT22;231;48.120;11.576;2023-07-20T22:46:57;18.00;22.90
490;DHT22;231;48.120;11.576;2023-07-20T22:49:24;18.00;23.30
490;DHT22;231;48.120;11.576;2023-07-20T22:51:53;18.00;24.00
490;DHT22;231;48.120;11.576;2023-07-20T22:54:20;17.90;24.40
490;DHT22;231;48.120;11.576;2023-07-20T22:56:47;18.00;25.00
490;DHT22;231;48.120;11.576;2023-07-20T22:59:14;18.00;25.20
490;DHT22;231;48.120;11.576;2023-07-20T23:01:42;17.90;25.10
490;DHT22;231;48.120;11.576;2023-07-20T23:04:10;17.90;25.60
490;DHT22;231;48.120;11.576;2023-07-20T23:06:38;17.90;26.20
490;DHT22;231;48.120;11.576;2023-07-20T23:09:06;17.80;26.60
490;DHT22;231;48.120;11.576;2023-07-20T23:11:34;17.80;27.20
490;DHT22;231;48.120;11.576;2023-07-20T23:14:02;17.80;27.70
490;DHT22;231;48.120;11.576;2023-07-20T23:16:29;17.70;28.10
490;DHT22;231;48.120;11.576;2023-07-20T23:18:56;17.70;28.70
490;DHT22;231;48.120;11.576;2023-07-20T23:21:23;17.70;29.10
490;DHT22;231;48.120;11.576;2023-07-20T23:23:50;17.60;29.20
490;DHT22;231;48.120;11.576;2023-07-20T23:26:19;17.50;29.80
490;DHT22;231;48.120;11.576;2023-07-20T23:28:49;17.50;30.40
490;DHT22;231;48.120;11.576;2023-07-20T23:31:16;17.50;30.80
490;DHT22;231;48.120;11.576;2023-07-20T23:33:43;17.50;31.00
490;DHT22;231;48.120;11.576;2023-07-20T23:36:10;17.50;31.50
490;DHT22;231;48.120;11.576;2023-07-20T23:38:37;17.40;31.80